createdAt,value
2022-10-18T00:01:59.051Z,18.20
2022-10-18T00:04:28.874Z,18.18
2022-10-18T00:06:58.599Z,18.16
2022-10-18T00:09:31.233Z,18.20
2022-10-18T00:12:01.927Z,18.12
2022-10-18T00:14:32.192Z,18.20
2022-10-18T00:17:02.012Z,18.14
2022-10-18T00:19:32.033Z,18.13
2022-10-18T00:22:10.412Z,18.09
2022-10-18T00:24:40.693Z,18.06
2022-10-18T00:27:10.483Z,18.07
2022-10-18T00:29:40.431Z,17.99
2022-10-18T00:32:10.304Z,17.97
2022-10-18T00:34:42.865Z,18.03
2022-10-18T00:37:12.786Z,18.09
2022-10-18T00:39:43.002Z,18.02
2022-10-18T00:42:20.672Z,17.93
2022-10-18T00:44:53.661Z,17.92
2022-10-18T00:47:23.777Z,17.93
2022-10-18T00:49:59.123Z,17.96
2022-10-18T00:52:43.820Z,17.94
2022-10-18T00:55:14.581Z,17.90
2022-10-18T00:57:45.635Z,17.86
2022-10-18T01:00:16.361Z,17.90
2022-10-18T01:02:47.882Z,17.86
2022-10-18T01:05:19.925Z,17.89
2022-10-18T01:08:06.929Z,17.89
2022-10-18T01:10:53.036Z,17.85
2022-10-18T01:14:00.231Z,17.90
2022-10-18T01:16:45.081Z,17.89
2022-10-18T01:19:21.501Z,17.82
2022-10-18T01:21:51.060Z,17.82
2022-10-18T01:24:42.050Z,17.89
2022-10-18T01:27:39.113Z,17.85
2022-10-18T01:30:40.018Z,17.78
2022-10-18T01:33:27.913Z,17.71
2022-10-18T01:36:36.041Z,17.73
2022-10-18T01:39:10.850Z,17.81
2022-10-18T01:41:42.841Z,17.83
2022-10-18T01:44:22.305Z,17.79
2022-10-18T01:46:55.625Z,17.79
2022-10-18T01:49:26.885Z,17.78
2022-10-18T01:51:57.005Z,17.81
2022-10-18T01:54:37.232Z,17.79
2022-10-18T01:57:34.562Z,17.75
2022-10-18T02:00:20.649Z,17.78
2022-10-18T02:03:06.638Z,17.79
2022-10-18T02:05:52.446Z,17.73
2022-10-18T02:08:32.597Z,17.76
2022-10-18T02:11:04.167Z,17.79
2022-10-18T02:13:59.228Z,17.73
2022-10-18T02:16:40.585Z,17.76
2022-10-18T02:19:30.199Z,17.85
2022-10-18T02:22:01.372Z,17.89
2022-10-18T02:24:40.062Z,17.83
2022-10-18T02:27:10.701Z,17.79
2022-10-18T02:29:42.277Z,17.82
2022-10-18T02:32:31.242Z,17.82
2022-10-18T02:35:10.018Z,17.83
2022-10-18T02:37:41.516Z,17.81
2022-10-18T02:40:12.842Z,17.83
2022-10-18T02:42:49.088Z,17.82
2022-10-18T02:45:19.748Z,17.76
2022-10-18T02:47:49.675Z,17.75
2022-10-18T02:50:19.585Z,17.78
2022-10-18T02:52:49.259Z,17.65
2022-10-18T02:55:19.975Z,17.72
2022-10-18T02:57:50.081Z,17.71
2022-10-18T03:00:19.789Z,17.65
2022-10-18T03:02:51.534Z,17.73
2022-10-18T03:05:21.607Z,17.78
2022-10-18T03:07:51.286Z,17.72
2022-10-18T03:10:20.950Z,17.72
2022-10-18T03:12:50.631Z,17.73
2022-10-18T03:15:20.318Z,17.81
2022-10-18T03:17:49.967Z,17.73
2022-10-18T03:20:20.861Z,17.73
2022-10-18T03:22:50.570Z,17.75
2022-10-18T03:25:20.236Z,17.73
2022-10-18T03:27:49.931Z,17.72
2022-10-18T03:30:19.963Z,17.71
2022-10-18T03:32:50.582Z,17.69
2022-10-18T03:35:20.780Z,17.63
2022-10-18T03:37:50.884Z,17.62
2022-10-18T03:40:21.575Z,17.65
2022-10-18T03:42:51.272Z,17.68
2022-10-18T03:45:21.089Z,17.69
2022-10-18T03:47:51.145Z,17.68
2022-10-18T03:50:20.811Z,17.62
2022-10-18T03:52:50.443Z,17.63
2022-10-18T03:55:20.121Z,17.63
2022-10-18T03:57:49.832Z,17.62
2022-10-18T04:00:19.697Z,17.63
2022-10-18T04:02:52.060Z,17.58
2022-10-18T04:05:33.505Z,17.53
2022-10-18T04:08:03.897Z,17.52
2022-10-18T04:10:33.573Z,17.55
2022-10-18T04:13:03.439Z,17.53
2022-10-18T04:15:33.100Z,17.48
2022-10-18T04:18:03.353Z,17.45
2022-10-18T04:20:33.041Z,17.53
2022-10-18T04:23:02.728Z,17.58
2022-10-18T04:25:32.478Z,17.58
2022-10-18T04:28:02.337Z,17.56
2022-10-18T04:30:32.066Z,17.53
2022-10-18T04:33:01.825Z,17.55
2022-10-18T04:35:31.511Z,17.55
2022-10-18T04:38:01.594Z,17.56
2022-10-18T04:40:31.298Z,17.61
2022-10-18T04:43:00.955Z,17.65
2022-10-18T04:45:30.658Z,17.63
2022-10-18T04:48:00.665Z,17.68
2022-10-18T04:50:30.686Z,17.75
2022-10-18T04:53:00.363Z,17.76
2022-10-18T04:55:30.055Z,17.82
2022-10-18T04:57:59.956Z,17.79
2022-10-18T05:00:29.632Z,17.78
2022-10-18T05:02:59.915Z,17.76
2022-10-18T05:05:49.619Z,17.78
2022-10-18T05:08:19.924Z,17.71
2022-10-18T05:10:49.869Z,17.68
2022-10-18T05:13:19.541Z,17.73
2022-10-18T05:15:49.315Z,17.78
2022-10-18T05:18:19.237Z,17.79
2022-10-18T05:20:49.387Z,17.78
2022-10-18T05:23:19.121Z,17.79
2022-10-18T05:25:48.935Z,17.83
2022-10-18T05:28:38.683Z,17.81
2022-10-18T05:31:11.303Z,17.78
2022-10-18T05:33:41.474Z,17.73
2022-10-18T05:36:11.861Z,17.75
2022-10-18T05:38:46.573Z,17.81
2022-10-18T05:41:17.159Z,17.85
2022-10-18T05:43:46.872Z,17.85
2022-10-18T05:46:16.552Z,17.85
2022-10-18T05:48:50.657Z,17.85
2022-10-18T05:51:21.131Z,17.83
2022-10-18T05:53:51.065Z,17.81
2022-10-18T05:56:20.744Z,17.79
2022-10-18T05:58:53.857Z,17.72
2022-10-18T06:01:23.826Z,17.68
2022-10-18T06:03:53.887Z,17.62
2022-10-18T06:06:23.855Z,17.61
2022-10-18T06:08:53.518Z,17.58
2022-10-18T06:11:23.227Z,17.56
2022-10-18T06:13:54.484Z,17.53
2022-10-18T06:16:29.832Z,17.58
2022-10-18T06:19:02.198Z,17.53
2022-10-18T06:21:31.899Z,17.51
2022-10-18T06:24:01.676Z,17.55
2022-10-18T06:26:31.419Z,17.53
2022-10-18T06:29:01.707Z,17.52
2022-10-18T06:31:31.514Z,17.51
2022-10-18T06:34:02.064Z,17.45
2022-10-18T06:36:32.270Z,17.46
2022-10-18T06:39:02.366Z,17.44
2022-10-18T06:41:38.793Z,17.41
2022-10-18T06:44:22.595Z,17.39
2022-10-18T06:46:54.533Z,17.36
2022-10-18T06:49:25.041Z,17.36
2022-10-18T06:51:56.068Z,17.38
2022-10-18T06:54:26.077Z,17.44
2022-10-18T06:56:59.912Z,17.41
2022-10-18T06:59:31.388Z,17.42
2022-10-18T07:02:01.635Z,17.39
2022-10-18T07:04:31.775Z,17.45
2022-10-18T07:07:01.434Z,17.44
2022-10-18T07:09:31.127Z,17.45
2022-10-18T07:12:00.814Z,17.41
2022-10-18T07:14:30.738Z,17.42
2022-10-18T07:17:01.794Z,17.45
2022-10-18T07:19:31.800Z,17.46
2022-10-18T07:22:01.500Z,17.46
2022-10-18T07:24:31.182Z,17.46
2022-10-18T07:27:00.844Z,17.45
2022-10-18T07:29:30.638Z,17.46
2022-10-18T07:32:00.274Z,17.46
2022-10-18T07:34:30.107Z,17.46
2022-10-18T07:37:00.533Z,17.44
2022-10-18T07:39:30.199Z,17.42
2022-10-18T07:41:59.974Z,17.38
2022-10-18T07:44:30.101Z,17.44
2022-10-18T07:47:00.977Z,17.42
2022-10-18T07:49:31.151Z,17.44
2022-10-18T07:52:00.823Z,17.44
2022-10-18T07:54:31.445Z,17.45
2022-10-18T07:57:01.099Z,17.44
2022-10-18T07:59:30.752Z,17.44
2022-10-18T08:02:00.582Z,17.45
2022-10-18T08:04:30.290Z,17.41
2022-10-18T08:06:59.937Z,17.45
2022-10-18T08:09:29.705Z,17.48
2022-10-18T08:11:59.519Z,17.56
2022-10-18T08:14:29.210Z,17.62
2022-10-18T08:16:58.919Z,17.69
2022-10-18T08:19:28.570Z,17.68
2022-10-18T08:21:58.611Z,17.69
2022-10-18T08:24:28.373Z,17.72
2022-10-18T08:26:58.433Z,17.73
2022-10-18T08:29:31.525Z,17.76
2022-10-18T08:32:02.012Z,17.79
2022-10-18T08:34:31.739Z,17.76
2022-10-18T08:37:01.510Z,17.81
2022-10-18T08:39:31.214Z,17.81
2022-10-18T08:42:15.388Z,17.82
2022-10-18T08:44:50.978Z,17.87
2022-10-18T08:47:20.641Z,17.86
2022-10-18T08:50:13.936Z,17.85
2022-10-18T08:52:59.614Z,17.85
2022-10-18T08:55:44.865Z,17.83
2022-10-18T08:58:24.757Z,17.87
2022-10-18T09:01:36.088Z,17.87
2022-10-18T09:04:19.723Z,17.89
2022-10-18T09:07:24.525Z,17.90
2022-10-18T09:10:15.808Z,17.93
2022-10-18T09:13:23.266Z,17.99
2022-10-18T09:16:09.492Z,18.00
2022-10-18T09:18:42.260Z,18.03
2022-10-18T09:21:23.790Z,18.04
2022-10-18T09:24:04.451Z,18.03
2022-10-18T09:26:59.059Z,18.02
2022-10-18T09:29:46.953Z,18.02
2022-10-18T09:32:38.036Z,18.06
2022-10-18T09:35:35.420Z,18.09
2022-10-18T09:38:10.973Z,18.14
2022-10-18T09:40:58.063Z,18.20
2022-10-18T09:43:57.306Z,18.24
2022-10-18T09:46:33.889Z,18.27
2022-10-18T09:49:16.667Z,18.31
2022-10-18T09:51:48.999Z,18.34
2022-10-18T09:54:22.264Z,18.41
2022-10-18T09:57:04.002Z,18.43
2022-10-18T09:59:48.262Z,18.55
2022-10-18T10:02:23.402Z,18.55
2022-10-18T10:04:58.005Z,18.62
2022-10-18T10:07:44.600Z,18.69
2022-10-18T10:10:31.368Z,18.82
2022-10-18T10:13:27.213Z,18.89
2022-10-18T10:16:01.531Z,18.89
2022-10-18T10:18:35.447Z,19.00
2022-10-18T10:21:15.044Z,19.12
2022-10-18T10:23:55.638Z,19.26
2022-10-18T10:26:32.577Z,19.33
2022-10-18T10:29:03.017Z,19.41
2022-10-18T10:31:34.699Z,19.51
2022-10-18T10:34:21.413Z,19.60
2022-10-18T10:36:56.574Z,19.58
2022-10-18T10:39:26.783Z,19.63
2022-10-18T10:42:01.879Z,19.54
2022-10-18T10:44:38.324Z,19.56
2022-10-18T10:47:08.295Z,19.60
2022-10-18T10:49:41.468Z,19.73
2022-10-18T10:52:28.559Z,19.91
2022-10-18T10:55:23.529Z,20.12
2022-10-18T10:57:52.378Z,20.53
2022-10-18T11:00:45.626Z,21.12
2022-10-18T11:03:34.993Z,21.62
2022-10-18T11:06:05.516Z,21.24
2022-10-18T11:08:41.995Z,21.23
2022-10-18T11:11:28.852Z,21.03
2022-10-18T11:14:24.579Z,20.72
2022-10-18T11:17:41.858Z,20.73
2022-10-18T11:20:17.150Z,20.66
2022-10-18T11:23:01.122Z,20.57
2022-10-18T11:25:46.056Z,20.47
2022-10-18T11:28:21.397Z,20.45
2022-10-18T11:30:51.084Z,20.50
2022-10-18T11:33:56.481Z,20.33
2022-10-18T11:36:36.566Z,20.32
2022-10-18T11:39:46.822Z,20.42
2022-10-18T11:42:41.250Z,20.52
2022-10-18T11:45:26.526Z,20.56
2022-10-18T11:48:03.466Z,20.50
2022-10-18T11:50:43.211Z,20.50
2022-10-18T11:53:35.974Z,20.47
2022-10-18T11:56:20.500Z,20.40
2022-10-18T11:59:12.202Z,20.25
2022-10-18T12:02:05.397Z,20.15
2022-10-18T12:04:48.957Z,20.22
2022-10-18T12:07:37.685Z,20.45
2022-10-18T12:10:10.670Z,20.59
2022-10-18T12:13:02.267Z,20.93
2022-10-18T12:15:35.067Z,21.21
2022-10-18T12:18:13.104Z,21.61
2022-10-18T12:20:55.381Z,22.16
2022-10-18T12:23:30.937Z,22.25
2022-10-18T12:26:09.603Z,22.40
2022-10-18T12:29:15.474Z,22.25
2022-10-18T12:31:52.806Z,22.41
2022-10-18T12:34:28.242Z,22.87
2022-10-18T12:40:08.986Z,24.93
2022-10-18T12:42:49.856Z,25.82
2022-10-18T12:45:36.011Z,26.13
2022-10-18T12:48:10.058Z,26.06
2022-10-18T12:50:45.505Z,24.96
2022-10-18T12:53:15.065Z,24.35
2022-10-18T12:55:47.364Z,24.05
2022-10-18T12:58:17.363Z,24.15
2022-10-18T13:00:48.545Z,24.52
2022-10-18T13:03:19.108Z,24.46
2022-10-18T13:05:59.987Z,24.65
2022-10-18T13:08:42.881Z,24.17
2022-10-18T13:11:12.698Z,24.15
2022-10-18T13:14:12.400Z,24.30
2022-10-18T13:17:13.761Z,24.28
2022-10-18T13:20:02.930Z,24.07
2022-10-18T13:23:10.056Z,24.01
2022-10-18T13:25:40.152Z,24.07
2022-10-18T13:28:37.707Z,23.82
2022-10-18T13:31:13.167Z,23.36
2022-10-18T13:33:44.032Z,23.20
2022-10-18T13:36:22.963Z,22.99
2022-10-18T13:38:59.239Z,22.92
2022-10-18T13:41:50.721Z,22.92
2022-10-18T13:44:41.412Z,23.22
2022-10-18T13:47:37.646Z,23.59
2022-10-18T13:50:18.913Z,23.50
2022-10-18T13:52:48.587Z,23.46
2022-10-18T13:55:46.491Z,23.63
2022-10-18T13:58:34.729Z,24.04
2022-10-18T14:01:16.152Z,24.11
2022-10-18T14:04:22.717Z,24.22
2022-10-18T14:06:59.917Z,24.42
2022-10-18T14:09:47.155Z,24.35
2022-10-18T14:12:42.735Z,24.38
2022-10-18T14:15:40.885Z,24.33
2022-10-18T14:18:15.970Z,23.88
2022-10-18T14:21:13.332Z,23.70
2022-10-18T14:23:46.124Z,23.67
2022-10-18T14:26:22.088Z,23.91
2022-10-18T14:29:16.505Z,24.14
2022-10-18T14:31:54.548Z,24.80
2022-10-18T14:34:24.651Z,25.24
2022-10-18T14:36:54.396Z,24.94
2022-10-18T14:39:29.624Z,24.66
2022-10-18T14:42:00.656Z,24.48
2022-10-18T14:44:33.022Z,24.26
2022-10-18T14:47:04.978Z,23.85
2022-10-18T14:49:34.872Z,23.61
2022-10-18T14:52:04.576Z,23.56
2022-10-18T14:54:37.998Z,23.42
2022-10-18T14:57:09.021Z,23.39
2022-10-18T14:59:54.135Z,23.15
2022-10-18T15:02:29.568Z,22.94
2022-10-18T15:05:11.151Z,22.84
2022-10-18T15:07:41.367Z,22.62
2022-10-18T15:10:21.322Z,22.64
2022-10-18T15:13:09.375Z,22.72
2022-10-18T15:15:41.541Z,22.58
2022-10-18T15:18:25.859Z,22.34
2022-10-18T15:21:24.286Z,22.18
2022-10-18T15:23:56.092Z,22.16
2022-10-18T15:26:32.032Z,22.07
2022-10-18T15:29:04.478Z,21.94
2022-10-18T15:31:39.386Z,21.86
2022-10-18T15:34:20.078Z,21.83
2022-10-18T15:36:51.619Z,21.63
2022-10-18T15:39:31.720Z,21.49
2022-10-18T15:42:04.304Z,21.34
2022-10-18T15:44:47.907Z,21.18
2022-10-18T15:47:24.670Z,21.11
2022-10-18T15:50:02.830Z,21.05
2022-10-18T15:52:50.704Z,21.08
2022-10-18T15:55:34.029Z,21.07
2022-10-18T15:58:12.874Z,21.07
2022-10-18T16:00:46.332Z,21.01
2022-10-18T16:03:18.078Z,21.00
2022-10-18T16:05:48.580Z,20.91
2022-10-18T16:08:27.553Z,20.90
2022-10-18T16:10:59.809Z,20.83
2022-10-18T16:13:29.837Z,20.80
2022-10-18T16:16:01.323Z,20.77
2022-10-18T16:18:31.256Z,20.74
2022-10-18T16:21:03.046Z,20.79
2022-10-18T16:23:32.887Z,20.77
2022-10-18T16:26:02.540Z,20.74
2022-10-18T16:28:32.971Z,20.74
2022-10-18T16:31:05.189Z,20.72
2022-10-18T16:33:36.865Z,20.62
2022-10-18T16:36:07.108Z,20.59
2022-10-18T16:38:39.420Z,20.62
2022-10-18T16:41:10.771Z,20.57
2022-10-18T16:43:41.376Z,20.59
2022-10-18T16:46:17.942Z,20.59
2022-10-18T16:48:50.038Z,20.69
2022-10-18T16:51:20.016Z,20.65
2022-10-18T16:53:50.619Z,20.73
2022-10-18T16:56:23.460Z,20.77
2022-10-18T16:58:54.259Z,21.01
2022-10-18T17:01:25.913Z,21.05
2022-10-18T17:03:56.475Z,21.18
2022-10-18T17:06:28.725Z,21.10
2022-10-18T17:08:59.992Z,21.03
2022-10-18T17:11:30.310Z,21.05
2022-10-18T17:14:00.195Z,21.01
2022-10-18T17:16:35.530Z,21.14
2022-10-18T17:19:08.449Z,21.21
2022-10-18T17:21:42.456Z,21.07
2022-10-18T17:24:13.034Z,21.21
2022-10-18T17:26:43.241Z,21.31
2022-10-18T17:29:12.972Z,21.28
2022-10-18T17:31:42.693Z,21.27
2022-10-18T17:34:12.363Z,21.38
2022-10-18T17:36:42.274Z,21.39
2022-10-18T17:39:12.682Z,21.65
2022-10-18T17:41:42.359Z,21.92
2022-10-18T17:44:12.059Z,21.86
2022-10-18T17:46:43.209Z,21.79
2022-10-18T17:49:15.403Z,21.75
2022-10-18T17:51:46.570Z,21.75
2022-10-18T17:54:16.709Z,21.66
2022-10-18T17:56:46.899Z,21.52
2022-10-18T17:59:18.124Z,21.34
2022-10-18T18:04:18.220Z,21.25
2022-10-18T18:06:50.128Z,21.20
2022-10-18T18:09:21.043Z,21.17
2022-10-18T18:11:52.578Z,21.23
2022-10-18T18:14:22.807Z,21.18
2022-10-18T18:16:52.636Z,21.24
2022-10-18T18:19:22.561Z,21.15
2022-10-18T18:21:54.749Z,21.08
2022-10-18T18:24:25.925Z,21.24
2022-10-18T18:26:57.336Z,21.25
2022-10-18T18:29:31.817Z,21.32
2022-10-18T18:32:02.116Z,21.30
2022-10-18T18:34:32.045Z,21.30
2022-10-18T18:37:01.753Z,21.42
2022-10-18T18:39:31.502Z,21.66
2022-10-18T18:42:02.818Z,21.67
2022-10-18T18:44:33.427Z,21.89
2022-10-18T18:47:03.498Z,21.86
2022-10-18T18:49:34.033Z,21.73
2022-10-18T18:52:04.544Z,21.63
2022-10-18T18:54:37.088Z,21.48
2022-10-18T18:57:08.292Z,21.30
2022-10-18T18:59:38.166Z,21.35
2022-10-18T19:02:08.238Z,21.27
2022-10-18T19:04:38.079Z,21.20
2022-10-18T19:07:07.777Z,21.18
2022-10-18T19:09:39.716Z,21.12
2022-10-18T19:12:10.191Z,21.21
2022-10-18T19:14:39.900Z,21.31
2022-10-18T19:17:10.588Z,21.25
2022-10-18T19:19:41.994Z,21.24
2022-10-18T19:22:12.324Z,21.32
2022-10-18T19:24:41.984Z,21.35
2022-10-18T19:27:15.109Z,21.32
2022-10-18T19:29:47.185Z,21.31
2022-10-18T19:32:19.711Z,21.24
2022-10-18T19:34:49.904Z,21.20
2022-10-18T19:37:20.140Z,21.14
2022-10-18T19:39:50.045Z,21.14
2022-10-18T19:42:24.114Z,21.08
2022-10-18T19:44:56.302Z,21.08
2022-10-18T19:47:25.963Z,21.00
2022-10-18T19:49:55.613Z,20.90
2022-10-18T19:52:25.728Z,20.91
2022-10-18T19:54:55.393Z,20.80
2022-10-18T19:57:25.053Z,20.77
2022-10-18T19:59:56.598Z,20.73
2022-10-18T20:02:27.097Z,20.65
2022-10-18T20:04:56.791Z,20.69
2022-10-18T20:07:26.793Z,20.69
2022-10-18T20:09:56.469Z,20.73
2022-10-18T20:12:26.225Z,20.74
2022-10-18T20:14:56.176Z,20.79
2022-10-18T20:17:25.859Z,20.76
2022-10-18T20:19:55.926Z,20.73
2022-10-18T20:22:25.696Z,20.60
2022-10-18T20:24:57.170Z,20.57
2022-10-18T20:27:27.098Z,20.56
2022-10-18T20:29:56.791Z,20.53
2022-10-18T20:32:26.483Z,20.49
2022-10-18T20:34:56.146Z,20.40
2022-10-18T20:37:25.884Z,20.38
2022-10-18T20:39:55.559Z,20.32
2022-10-18T20:42:25.224Z,20.26
2022-10-18T20:44:55.861Z,20.30
2022-10-18T20:47:25.767Z,20.25
2022-10-18T20:49:55.474Z,20.21
2022-10-18T20:52:25.448Z,20.15
2022-10-18T20:54:55.192Z,20.11
2022-10-18T20:57:26.003Z,20.05
2022-10-18T20:59:56.405Z,20.01
2022-10-18T21:02:26.084Z,19.92
2022-10-18T21:04:55.778Z,19.91
2022-10-18T21:07:25.574Z,19.87
2022-10-18T21:09:55.254Z,19.81
2022-10-18T21:12:27.534Z,19.78
2022-10-18T21:14:59.587Z,19.74
2022-10-18T21:17:29.257Z,19.74
2022-10-18T21:19:59.112Z,19.70
2022-10-18T21:22:28.949Z,19.63
2022-10-18T21:24:58.736Z,19.56
2022-10-18T21:27:28.420Z,19.54
2022-10-18T21:29:58.080Z,19.46
2022-10-18T21:32:27.851Z,19.43
2022-10-18T21:34:57.540Z,19.37
2022-10-18T21:37:27.277Z,19.31
2022-10-18T21:39:57.133Z,19.27
2022-10-18T21:42:27.408Z,19.20
2022-10-18T21:44:57.146Z,19.16
2022-10-18T21:47:27.453Z,19.09
2022-10-18T21:49:57.197Z,19.12
2022-10-18T21:52:26.940Z,19.08
2022-10-18T21:54:56.619Z,19.03
2022-10-18T21:57:26.676Z,18.99
2022-10-18T21:59:56.388Z,18.95
2022-10-18T22:02:26.104Z,18.96
2022-10-18T22:04:55.887Z,18.94
2022-10-18T22:07:25.553Z,18.89
2022-10-18T22:09:56.177Z,18.88
2022-10-18T22:12:27.264Z,18.91
2022-10-18T22:14:57.601Z,18.87
2022-10-18T22:17:27.528Z,18.84
2022-10-18T22:19:57.213Z,18.82
2022-10-18T22:22:26.952Z,18.85
2022-10-18T22:24:56.633Z,18.82
2022-10-18T22:27:26.348Z,18.82
2022-10-18T22:29:56.083Z,18.87
2022-10-18T22:32:25.897Z,18.85
2022-10-18T22:34:55.595Z,18.85
2022-10-18T22:37:25.387Z,18.87
2022-10-18T22:39:55.264Z,18.82
2022-10-18T22:42:25.019Z,18.78
2022-10-18T22:44:54.904Z,18.79
2022-10-18T22:47:25.378Z,18.79
2022-10-18T22:49:55.027Z,18.84
2022-10-18T22:52:24.760Z,18.85
2022-10-18T22:54:54.498Z,18.78
2022-10-18T22:57:24.205Z,18.76
2022-10-18T22:59:54.049Z,18.69
2022-10-18T23:02:24.794Z,18.67
2022-10-18T23:04:54.463Z,18.60
2022-10-18T23:07:24.265Z,18.58
2022-10-18T23:09:54.055Z,18.52
2022-10-18T23:12:23.763Z,18.45
2022-10-18T23:14:53.449Z,18.43
2022-10-18T23:17:23.153Z,18.40
2022-10-18T23:19:52.837Z,18.37
2022-10-18T23:22:22.584Z,18.34
2022-10-18T23:24:52.291Z,18.30
2022-10-18T23:27:21.988Z,18.30
2022-10-18T23:29:52.832Z,18.31
2022-10-18T23:32:22.530Z,18.34
2022-10-18T23:34:53.379Z,18.36
2022-10-18T23:37:23.445Z,18.36
2022-10-18T23:39:53.158Z,18.31
2022-10-18T23:42:22.858Z,18.33
2022-10-18T23:44:52.636Z,18.34
2022-10-18T23:47:22.400Z,18.29
2022-10-18T23:49:52.081Z,18.24
2022-10-18T23:52:21.763Z,18.23
2022-10-18T23:54:51.522Z,18.23
2022-10-18T23:57:21.277Z,18.21
2022-10-18T23:59:51.111Z,18.21
